RO-0009 weather

Aerodromul Charlie Bravo Siria
Arad, Arad, Romania

Public forecast

Using degrees Celsius for public forecast. Weather courtesy of forecast.io.

METAR (pilot weather report)

Closest report is Arad International Airport, 15.2 nm (28.1 km) WSW. Retrieved 2019/08/24 08:30 UTC (23 minutes ago):

LRAR 240830Z 21005KT 150V250 CAVOK 30/15 Q1021

TAF (pilot weather forecast)

Forecast is more than 12 hours old.

Closest forecast is Arad International Airport, 15.2 nm (28.1 km) WSW. Retrieved 2012/12/05 09:33 UTC (7 years ago):

TAF TAF LRAR 050800Z 0509/0521 VRB04KT 3000 -SN BR BKN005 OVC010 TEMPO 0509/0513 1500 SN BKN002 OVC005 BECMG 0513/0515 5000 -SN BKN010 OVC025